Autopride — CQQE — position and weather

sailwx.info

Track history (hours):
 
Tides and Currents Weather Stations Pressure Air Temp Water Temp Dewpoint Dewpoint Depression Visibility Wind Speed Wind Dir Waves Ship Positions

Autopride

Last reported at 2014-Dec-20 01:15 UTC. Time now 2014-Dec-20 03:00 UTC.
Position N 36°45' W 009°29'.

Length 125 m; draft 5.3 m.

Type: Cargo ship. MMSI: 255801560.

Date/timePositionNaut miles runAvg speedWind from/ knotsBaromVisibWave heightAir tempDewpointWater temp
2014-Dec-20 01:15N 36°45' W 009°29'710.7
2014-Dec-20 00:33N 36°52' W 009°33'1111.1
2014-Dec-19 23:33N 37°03' W 009°36'1211.2
2014-Dec-19 22:28N 37°15' W 009°39'1111.2
2014-Dec-19 21:29N 37°25' W 009°43'1411.4
2014-Dec-19 20:16N 37°39' W 009°47'811.5
2014-Dec-19 19:31N 37°47' W 009°49'1311.6
2014-Dec-19 18:26N 37°60' W 009°52'1111.5
2014-Dec-19 17:31N 38°10' W 009°55'1111.3
2014-Dec-19 16:31N 38°21' W 009°59'1111.2
2014-Dec-19 15:31N 38°32' W 010°02'1111.2
2014-Dec-19 14:32N 38°42' W 010°05'1211.0
2014-Dec-19 13:28N 38°54' W 010°04'1111.2
2014-Dec-19 12:27N 39°05' W 010°01'1111.0
2014-Dec-19 11:29N 39°16' W 009°57'13 0.3
2014-Dec-17 12:10N 39°04' W 009°48'811.1
2014-Dec-17 11:28N 38°57' W 009°51'1011.0
2014-Dec-17 10:33N 38°47' W 009°52'1110.8
2014-Dec-17 09:30N 38°36' W 009°50'1010.7
2014-Dec-17 08:33N 38°26' W 009°47'1110.7
2014-Dec-17 07:33N 38°15' W 009°44'10 9.0
2014-Dec-17 06:26N 38°05' W 009°41'8 8.5
2014-Dec-17 05:32N 37°58' W 009°38'8 8.6
2014-Dec-17 04:33N 37°50' W 009°36'9 8.6
2014-Dec-17 03:33N 37°41' W 009°33'9 8.8
2014-Dec-17 02:33N 37°33' W 009°31'213 9.2
2014-Dec-16 03:32N 35°59' W 005°33'9 9.6
2014-Dec-16 02:33N 36°05' W 005°24'1 0.7
2014-Dec-16 01:09N 36°06' W 005°25'0 0.0
2014-Dec-15 23:33N 36°06' W 005°25'0 0.0
2014-Dec-15 22:33N 36°06' W 005°25'0 0.1
2014-Dec-15 21:33N 36°06' W 005°25'2 1.8
2014-Dec-15 20:33N 36°05' W 005°23'1110.7
2014-Dec-15 19:33N 36°04' W 005°09'  
Track history (hours):
 
Tides and Currents Weather Stations Pressure Air Temp Water Temp Dewpoint Dewpoint Depression Visibility Wind Speed Wind Dir Waves Ship Positions

Autopride

Last reported at 2014-Dec-20 01:15 UTC. Time now 2014-Dec-20 03:00 UTC.
Position N 36°45' W 009°29'.

Length 125 m; draft 5.3 m.

Type: Cargo ship. MMSI: 255801560.

Date/timePositionNaut miles runAvg speedWind from/ knotsBaromVisibWave heightAir tempDewpointWater temp
2014-Dec-20 01:15N 36°45' W 009°29'710.7
2014-Dec-20 00:33N 36°52' W 009°33'1111.1
2014-Dec-19 23:33N 37°03' W 009°36'1211.2
2014-Dec-19 22:28N 37°15' W 009°39'1111.2
2014-Dec-19 21:29N 37°25' W 009°43'1411.4
2014-Dec-19 20:16N 37°39' W 009°47'811.5
2014-Dec-19 19:31N 37°47' W 009°49'1311.6
2014-Dec-19 18:26N 37°60' W 009°52'1111.5
2014-Dec-19 17:31N 38°10' W 009°55'1111.3
2014-Dec-19 16:31N 38°21' W 009°59'1111.2
2014-Dec-19 15:31N 38°32' W 010°02'1111.2
2014-Dec-19 14:32N 38°42' W 010°05'1211.0
2014-Dec-19 13:28N 38°54' W 010°04'1111.2
2014-Dec-19 12:27N 39°05' W 010°01'1111.0
2014-Dec-19 11:29N 39°16' W 009°57'13 0.3
2014-Dec-17 12:10N 39°04' W 009°48'811.1
2014-Dec-17 11:28N 38°57' W 009°51'1011.0
2014-Dec-17 10:33N 38°47' W 009°52'1110.8
2014-Dec-17 09:30N 38°36' W 009°50'1010.7
2014-Dec-17 08:33N 38°26' W 009°47'1110.7
2014-Dec-17 07:33N 38°15' W 009°44'10 9.0
2014-Dec-17 06:26N 38°05' W 009°41'8 8.5
2014-Dec-17 05:32N 37°58' W 009°38'8 8.6
2014-Dec-17 04:33N 37°50' W 009°36'9 8.6
2014-Dec-17 03:33N 37°41' W 009°33'9 8.8
2014-Dec-17 02:33N 37°33' W 009°31'213 9.2
2014-Dec-16 03:32N 35°59' W 005°33'9 9.6
2014-Dec-16 02:33N 36°05' W 005°24'1 0.7
2014-Dec-16 01:09N 36°06' W 005°25'0 0.0
2014-Dec-15 23:33N 36°06' W 005°25'0 0.0
2014-Dec-15 22:33N 36°06' W 005°25'0 0.1
2014-Dec-15 21:33N 36°06' W 005°25'2 1.8
2014-Dec-15 20:33N 36°05' W 005°23'1110.7
2014-Dec-15 19:33N 36°04' W 005°09'  

Dump ship's entire track history